Time;durP1;ratioP1;P1;durP2;ratioP2;P2;SDS_P1;SDS_P2;PMS_P1;PMS_P2;Temp;Humidity;BMP_temperature;BMP_pressure;BME280_temperature;BME280_humidity;BME280_pressure;Samples;Min_cycle;Max_cycle;Signal;HPM_P1;HPM_P2
2021/09/15 00:00:22;;;;;;;11.80;10.80;;;19.60;99.90;;;;;;5072754;28;20462;-64
2021/09/15 00:02:50;;;;;;;10.60;9.60;;;19.60;99.90;;;;;;5072404;28;20600;-64
2021/09/15 00:05:17;;;;;;;12.53;10.73;;;19.60;99.90;;;;;;5072893;28;20480;-64
2021/09/15 00:07:44;;;;;;;11.10;10.20;;;19.60;99.90;;;;;;5072611;28;20504;-64
2021/09/15 00:10:12;;;;;;;10.90;10.00;;;19.60;99.90;;;;;;5072382;28;20466;-64
2021/09/15 00:12:39;;;;;;;8.90;8.30;;;19.60;99.90;;;;;;5072681;28;20557;-64
2021/09/15 00:15:07;;;;;;;9.80;8.93;;;19.60;99.90;;;;;;5072219;28;20477;-64
2021/09/15 00:17:34;;;;;;;9.47;8.67;;;19.60;99.90;;;;;;5066942;28;20466;-64
2021/09/15 00:20:04;;;;;;;13.60;12.13;;;19.60;99.90;;;;;;5072087;28;20472;-64
2021/09/15 00:22:30;;;;;;;15.00;13.70;;;19.60;99.90;;;;;;5072401;28;20978;-64
2021/09/15 00:24:57;;;;;;;13.70;12.40;;;19.50;99.90;;;;;;5063042;28;20458;-64
2021/09/15 00:27:24;;;;;;;12.10;11.00;;;19.50;99.90;;;;;;5072481;28;20470;-64
2021/09/15 00:29:51;;;;;;;11.10;10.20;;;19.50;99.90;;;;;;5072112;28;20477;-64
2021/09/15 00:32:18;;;;;;;9.40;8.60;;;19.60;99.90;;;;;;5063263;28;20472;-64
2021/09/15 00:34:45;;;;;;;12.47;11.27;;;19.50;99.90;;;;;;5072383;28;20473;-64
2021/09/15 00:37:13;;;;;;;11.13;10.23;;;19.50;99.90;;;;;;5071790;28;20469;-64
2021/09/15 00:39:39;;;;;;;12.13;10.93;;;19.50;99.90;;;;;;5072311;28;20480;-63
2021/09/15 00:42:08;;;;;;;13.43;11.70;;;19.50;99.90;;;;;;5072062;28;20472;-63
2021/09/15 00:44:35;;;;;;;16.10;14.40;;;19.50;99.90;;;;;;5072293;28;20493;-63
2021/09/15 00:47:02;;;;;;;14.40;13.10;;;19.50;99.90;;;;;;5072055;28;20466;-63
2021/09/15 00:49:29;;;;;;;12.77;11.57;;;19.50;99.90;;;;;;5074529;28;20484;-63
2021/09/15 00:51:56;;;;;;;11.53;10.53;;;19.40;99.90;;;;;;5075939;28;20472;-63
2021/09/15 00:54:24;;;;;;;14.47;12.97;;;19.50;99.90;;;;;;5064409;28;20463;-63
2021/09/15 00:56:51;;;;;;;12.40;11.30;;;19.40;99.90;;;;;;5075820;28;20476;-63
2021/09/15 00:59:17;;;;;;;8.50;7.87;;;19.50;99.90;;;;;;5076026;28;20472;-63
2021/09/15 01:01:44;;;;;;;11.73;10.70;;;19.50;99.90;;;;;;5076373;28;20470;-63
2021/09/15 01:04:12;;;;;;;9.70;8.90;;;19.50;99.90;;;;;;5075643;28;20462;-63
2021/09/15 01:06:39;;;;;;;10.43;9.63;;;19.40;99.90;;;;;;5076178;28;20470;-63
2021/09/15 01:09:06;;;;;;;11.20;10.20;;;19.40;99.90;;;;;;5075597;28;20471;-63
2021/09/15 01:11:37;;;;;;;13.10;11.83;;;19.40;99.90;;;;;;5076048;28;20953;-63
2021/09/15 01:14:05;;;;;;;11.57;10.57;;;19.30;99.90;;;;;;5075440;28;20477;-64
2021/09/15 01:16:50;;;;;;;14.83;13.43;;;19.30;99.90;;;;;;5076076;28;20469;-63
2021/09/15 01:19:17;;;;;;;11.87;10.77;;;19.30;99.90;;;;;;5066272;28;20860;-63
2021/09/15 01:21:46;;;;;;;12.00;11.07;;;19.20;99.90;;;;;;5075771;28;20458;-64
2021/09/15 01:24:13;;;;;;;12.53;11.43;;;19.20;99.90;;;;;;5068473;28;20467;-63
2021/09/15 01:26:40;;;;;;;13.07;11.70;;;19.20;99.90;;;;;;5073664;28;20546;-64
2021/09/15 01:29:13;;;;;;;11.83;9.67;;;19.20;99.90;;;;;;5075160;28;20485;-64
2021/09/15 01:31:53;;;;;;;12.23;11.23;;;19.10;99.90;;;;;;5075404;28;20492;-63
2021/09/15 01:34:20;;;;;;;13.67;12.20;;;19.00;99.90;;;;;;5073943;28;21532;-64
2021/09/15 01:36:48;;;;;;;10.90;10.10;;;19.00;99.90;;;;;;5075396;28;20990;-64
2021/09/15 01:39:15;;;;;;;11.60;9.97;;;19.00;99.90;;;;;;5074998;28;20820;-64
2021/09/15 01:41:42;;;;;;;13.17;11.93;;;19.00;99.90;;;;;;5075473;28;20467;-64
2021/09/15 01:44:09;;;;;;;13.60;12.20;;;19.00;99.90;;;;;;5074980;28;20472;-64
2021/09/15 01:46:36;;;;;;;12.03;11.03;;;19.00;99.90;;;;;;5075295;28;20811;-64
2021/09/15 01:49:02;;;;;;;17.77;14.00;;;19.00;99.90;;;;;;5074917;28;20470;-64
2021/09/15 01:51:29;;;;;;;14.67;13.03;;;19.00;99.90;;;;;;5075187;28;20462;-64
2021/09/15 01:53:57;;;;;;;12.47;11.47;;;19.00;99.90;;;;;;5064446;28;20467;-64
2021/09/15 01:56:24;;;;;;;12.43;11.43;;;18.90;99.90;;;;;;5073589;28;20454;-64
2021/09/15 01:58:51;;;;;;;13.10;11.33;;;18.90;99.90;;;;;;5075010;28;21023;-64
2021/09/15 02:01:18;;;;;;;12.73;11.60;;;18.90;99.90;;;;;;5073917;28;20469;-64
2021/09/15 02:03:45;;;;;;;13.43;12.23;;;18.90;99.90;;;;;;5075196;28;20466;-64
2021/09/15 02:06:12;;;;;;;15.33;14.13;;;18.90;99.90;;;;;;5074421;28;20473;-64
2021/09/15 02:08:38;;;;;;;13.53;12.43;;;18.90;99.90;;;;;;5075175;28;20476;-65
2021/09/15 02:11:07;;;;;;;16.37;14.87;;;18.90;99.90;;;;;;5074369;28;20474;-64
2021/09/15 02:13:34;;;;;;;15.23;13.77;;;18.90;99.90;;;;;;5074879;28;20466;-64
2021/09/15 02:16:00;;;;;;;16.20;14.90;;;18.90;99.90;;;;;;5074887;28;20952;-64
2021/09/15 02:18:27;;;;;;;13.80;12.57;;;18.90;99.90;;;;;;5074184;28;20451;-64
2021/09/15 02:20:54;;;;;;;13.33;12.00;;;18.80;99.90;;;;;;5074774;28;21042;-64
2021/09/15 02:23:21;;;;;;;14.40;13.00;;;18.80;99.90;;;;;;5074271;28;20473;-64
2021/09/15 02:25:48;;;;;;;14.13;12.77;;;18.80;99.90;;;;;;5074370;28;20476;-64
2021/09/15 02:28:16;;;;;;;13.20;11.90;;;18.80;99.90;;;;;;5074189;28;20785;-64
2021/09/15 02:30:43;;;;;;;16.83;14.60;;;18.80;99.90;;;;;;5064188;28;20467;-64
2021/09/15 02:33:09;;;;;;;13.63;12.53;;;18.70;99.90;;;;;;5073797;28;20470;-64
2021/09/15 02:35:36;;;;;;;13.60;12.27;;;18.70;99.90;;;;;;5074611;28;20803;-64
2021/09/15 02:38:03;;;;;;;15.27;13.87;;;18.70;99.90;;;;;;5074223;28;20481;-64
2021/09/15 02:40:30;;;;;;;14.70;13.27;;;18.70;99.90;;;;;;5074132;28;20462;-65
2021/09/15 02:42:57;;;;;;;13.60;12.40;;;18.70;99.90;;;;;;5074413;28;20843;-63
2021/09/15 02:45:25;;;;;;;13.70;12.13;;;18.70;99.90;;;;;;5073917;28;20482;-63
2021/09/15 02:47:52;;;;;;;13.13;11.90;;;18.70;99.90;;;;;;5074153;28;20462;-63
2021/09/15 02:50:19;;;;;;;13.20;12.00;;;18.80;99.90;;;;;;5073562;28;20979;-64
2021/09/15 02:52:46;;;;;;;13.07;11.97;;;18.80;99.90;;;;;;5073861;28;20477;-63
2021/09/15 02:55:12;;;;;;;14.30;12.80;;;18.80;99.90;;;;;;5073652;28;20470;-64
2021/09/15 02:57:39;;;;;;;14.30;13.13;;;18.80;99.90;;;;;;5074120;28;20458;-64
2021/09/15 03:00:08;;;;;;;13.87;12.67;;;18.80;99.90;;;;;;5073891;28;20807;-63
2021/09/15 03:02:36;;;;;;;13.00;11.80;;;18.80;99.90;;;;;;5073538;28;20459;-63
2021/09/15 03:05:04;;;;;;;14.37;12.87;;;18.70;99.90;;;;;;5073970;28;20477;-64
2021/09/15 03:07:30;;;;;;;13.50;12.40;;;18.70;99.90;;;;;;5073319;28;21029;-64
2021/09/15 03:09:57;;;;;;;14.43;12.90;;;18.70;99.90;;;;;;5073809;28;20484;-64
2021/09/15 03:12:24;;;;;;;15.97;14.37;;;18.70;99.90;;;;;;5072203;28;20469;-65
2021/09/15 03:14:51;;;;;;;14.37;13.07;;;18.70;99.90;;;;;;5073764;28;20519;-64
2021/09/15 03:17:18;;;;;;;14.60;13.20;;;18.70;99.90;;;;;;5073177;28;20829;-64
2021/09/15 03:19:46;;;;;;;12.93;11.83;;;18.60;99.90;;;;;;5073460;28;20484;-64
2021/09/15 03:22:13;;;;;;;15.33;14.00;;;18.60;99.90;;;;;;5072949;28;20467;-64
2021/09/15 03:24:40;;;;;;;12.93;11.80;;;18.60;99.90;;;;;;5064265;28;20481;-64
2021/09/15 03:27:07;;;;;;;14.83;13.63;;;18.60;99.90;;;;;;5073591;28;20467;-64
2021/09/15 03:29:34;;;;;;;13.50;12.20;;;18.60;99.90;;;;;;5069253;28;20461;-64
2021/09/15 03:32:01;;;;;;;14.33;12.90;;;18.60;99.90;;;;;;5070896;28;21006;-64
2021/09/15 03:34:28;;;;;;;13.40;12.07;;;18.60;99.90;;;;;;5073020;28;20474;-64
2021/09/15 03:36:57;;;;;;;12.93;11.73;;;18.60;99.90;;;;;;5073036;28;20472;-64
2021/09/15 03:39:23;;;;;;;13.83;12.40;;;18.70;99.90;;;;;;5072847;28;20484;-64
2021/09/15 03:41:50;;;;;;;12.10;10.90;;;18.70;99.90;;;;;;5073132;28;20462;-64
2021/09/15 03:44:17;;;;;;;12.93;11.83;;;18.70;99.90;;;;;;5072634;28;20474;-64
2021/09/15 03:46:44;;;;;;;14.13;12.73;;;18.70;99.90;;;;;;5073096;28;20944;-64
2021/09/15 03:49:11;;;;;;;14.63;13.07;;;18.70;99.90;;;;;;5072950;28;20964;-64
2021/09/15 03:51:38;;;;;;;14.03;12.80;;;18.60;99.90;;;;;;5072425;28;20468;-64
2021/09/15 03:54:06;;;;;;;15.83;14.40;;;18.70;99.90;;;;;;5072812;28;20554;-64
2021/09/15 03:56:33;;;;;;;14.93;13.63;;;18.70;99.90;;;;;;5072294;28;20477;-64
2021/09/15 03:59:00;;;;;;;13.83;12.63;;;18.70;99.90;;;;;;5072634;28;20480;-64
2021/09/15 04:01:27;;;;;;;15.10;13.77;;;18.70;99.90;;;;;;5072518;28;20472;-64
2021/09/15 04:03:53;;;;;;;13.57;12.37;;;18.60;99.90;;;;;;5072832;28;20771;-65
2021/09/15 04:06:20;;;;;;;14.60;13.30;;;18.60;99.90;;;;;;5072152;28;20484;-65
2021/09/15 04:08:47;;;;;;;16.43;15.03;;;18.60;99.90;;;;;;5072725;28;20455;-64
2021/09/15 04:11:15;;;;;;;15.27;13.87;;;18.50;99.90;;;;;;5072623;28;20998;-64
2021/09/15 04:13:42;;;;;;;14.97;13.50;;;18.50;99.90;;;;;;5072317;28;20454;-65
2021/09/15 04:16:09;;;;;;;14.73;13.30;;;18.50;99.90;;;;;;5072751;28;20466;-64
2021/09/15 04:18:36;;;;;;;15.57;14.27;;;18.50;99.90;;;;;;5071957;28;20480;-65
2021/09/15 04:21:03;;;;;;;14.60;13.30;;;18.50;99.90;;;;;;5072597;28;20459;-64
2021/09/15 04:23:34;;;;;;;14.83;13.57;;;18.50;99.90;;;;;;5071508;28;20488;-64
2021/09/15 04:31:32;;;;;;;16.00;14.40;;;18.40;99.90;;;;;;5070797;28;20922;-64
2021/09/15 04:34:02;;;;;;;14.57;13.27;;;18.50;99.90;;;;;;5072112;28;20468;-64
2021/09/15 04:36:30;;;;;;;15.87;14.27;;;18.50;99.90;;;;;;5072255;28;20994;-65
2021/09/15 04:38:56;;;;;;;16.40;14.83;;;18.60;99.90;;;;;;5072479;28;20488;-64
2021/09/15 04:41:23;;;;;;;14.93;13.70;;;18.60;99.90;;;;;;5072380;28;20804;-64
2021/09/15 04:43:51;;;;;;;14.70;13.40;;;18.60;99.90;;;;;;5072523;28;20936;-64
2021/09/15 04:46:18;;;;;;;12.97;11.70;;;18.60;99.90;;;;;;5072563;28;20474;-63
2021/09/15 04:48:45;;;;;;;13.27;12.17;;;18.70;99.90;;;;;;5072230;28;20484;-64
2021/09/15 04:51:12;;;;;;;15.27;13.80;;;18.70;99.90;;;;;;5072329;28;20474;-64
2021/09/15 04:53:39;;;;;;;12.73;11.67;;;18.70;99.90;;;;;;5072044;28;20463;-64
2021/09/15 04:56:06;;;;;;;14.03;12.83;;;18.70;99.90;;;;;;5072492;28;20474;-64
2021/09/15 04:58:33;;;;;;;14.17;13.07;;;18.70;99.90;;;;;;5071970;28;20815;-63
2021/09/15 05:01:01;;;;;;;15.47;13.93;;;18.70;99.90;;;;;;5072294;28;20462;-63
2021/09/15 05:03:28;;;;;;;17.13;15.30;;;18.70;99.90;;;;;;5072022;28;20474;-63
2021/09/15 05:05:55;;;;;;;15.10;13.50;;;18.70;99.90;;;;;;5072396;28;20462;-64
2021/09/15 05:08:22;;;;;;;15.13;13.70;;;18.60;99.90;;;;;;5072309;28;20808;-64
2021/09/15 05:10:49;;;;;;;16.53;14.43;;;18.60;99.90;;;;;;5072243;28;20472;-64
2021/09/15 05:13:15;;;;;;;15.87;14.47;;;18.60;99.90;;;;;;5072303;28;21087;-64
2021/09/15 05:15:42;;;;;;;13.63;12.60;;;18.50;99.90;;;;;;5071921;28;20640;-64
2021/09/15 05:18:11;;;;;;;15.07;13.53;;;18.60;99.90;;;;;;5072394;28;20466;-64
2021/09/15 05:20:37;;;;;;;15.77;14.37;;;18.50;99.90;;;;;;5071687;28;20860;-64
2021/09/15 05:23:05;;;;;;;15.17;13.97;;;18.60;99.90;;;;;;5072402;28;20492;-65
2021/09/15 05:25:31;;;;;;;16.23;14.77;;;18.50;99.90;;;;;;5071577;28;20500;-64
2021/09/15 05:27:59;;;;;;;15.17;13.60;;;18.50;99.90;;;;;;5072255;28;20918;-64
2021/09/15 05:30:26;;;;;;;15.07;13.67;;;18.50;99.90;;;;;;5071833;28;20462;-64
2021/09/15 05:32:53;;;;;;;15.20;13.90;;;18.50;99.90;;;;;;5071985;28;20465;-64
2021/09/15 05:35:21;;;;;;;15.50;13.90;;;18.50;99.90;;;;;;5072317;28;20462;-64
2021/09/15 05:37:48;;;;;;;16.40;14.80;;;18.60;99.90;;;;;;5075327;28;20458;-64
2021/09/15 05:40:14;;;;;;;15.10;13.90;;;18.60;99.90;;;;;;5075502;28;20952;-64
2021/09/15 05:42:41;;;;;;;16.67;15.27;;;18.60;99.90;;;;;;5075166;28;20465;-64
2021/09/15 05:45:09;;;;;;;14.00;12.80;;;18.60;99.90;;;;;;5075648;28;20978;-64
2021/09/15 05:47:36;;;;;;;14.77;13.47;;;18.60;99.90;;;;;;5075148;28;20470;-64
2021/09/15 05:50:04;;;;;;;14.07;12.57;;;18.60;99.90;;;;;;5075549;28;20493;-64
2021/09/15 05:52:32;;;;;;;15.93;14.40;;;18.70;99.90;;;;;;5075262;28;20811;-64
2021/09/15 05:54:59;;;;;;;16.37;14.97;;;18.70;99.90;;;;;;5075338;28;20472;-64
2021/09/15 05:57:26;;;;;;;15.60;13.67;;;18.80;99.90;;;;;;5075318;28;20467;-64
2021/09/15 05:59:53;;;;;;;15.83;14.33;;;18.80;99.90;;;;;;5075065;28;20457;-65
2021/09/15 06:02:19;;;;;;;15.47;14.07;;;18.80;99.90;;;;;;5075241;28;20476;-64
2021/09/15 06:04:46;;;;;;;15.23;13.87;;;18.80;99.90;;;;;;5074954;28;20494;-64
2021/09/15 06:07:13;;;;;;;15.40;14.00;;;18.80;99.90;;;;;;5075171;28;20466;-64
2021/09/15 06:09:41;;;;;;;15.60;14.07;;;18.80;99.90;;;;;;5074718;28;20470;-64
2021/09/15 06:12:08;;;;;;;15.57;14.10;;;18.90;99.90;;;;;;5075332;28;20795;-64
2021/09/15 06:14:35;;;;;;;16.20;14.53;;;18.90;99.90;;;;;;5074552;28;20466;-64
2021/09/15 06:17:02;;;;;;;15.43;13.87;;;18.90;99.90;;;;;;5075110;28;20472;-64
2021/09/15 06:19:29;;;;;;;16.23;14.73;;;18.90;99.90;;;;;;5074718;28;20479;-64
2021/09/15 06:21:56;;;;;;;16.07;14.37;;;18.90;99.90;;;;;;5074639;28;20476;-65
2021/09/15 06:24:22;;;;;;;15.87;14.33;;;18.90;99.90;;;;;;5074953;28;20651;-65
2021/09/15 06:26:51;;;;;;;17.17;15.47;;;18.90;99.90;;;;;;5074484;28;20462;-63
2021/09/15 06:29:18;;;;;;;16.63;14.90;;;18.90;99.90;;;;;;5074820;28;20473;-63
2021/09/15 06:31:46;;;;;;;15.03;13.63;;;18.90;99.90;;;;;;5074088;28;20940;-64
2021/09/15 06:34:13;;;;;;;15.67;14.37;;;19.00;99.90;;;;;;5074958;28;21056;-63
2021/09/15 06:36:43;;;;;;;15.97;14.17;;;19.00;99.90;;;;;;5074267;28;20467;-63
2021/09/15 06:39:10;;;;;;;16.23;14.63;;;19.00;99.90;;;;;;5074372;28;20992;-64
2021/09/15 06:41:37;;;;;;;18.33;16.60;;;19.10;99.90;;;;;;5074202;28;20466;-64
2021/09/15 06:44:05;;;;;;;17.77;15.93;;;19.10;99.90;;;;;;5074418;28;20476;-64
2021/09/15 06:46:32;;;;;;;16.00;14.37;;;19.10;99.90;;;;;;5074265;28;20972;-65
2021/09/15 06:48:59;;;;;;;18.20;14.47;;;19.20;99.90;;;;;;5074262;28;20458;-64
2021/09/15 06:51:26;;;;;;;15.00;13.60;;;19.20;99.90;;;;;;5074239;28;20463;-64
2021/09/15 06:53:52;;;;;;;19.90;15.97;;;19.20;99.90;;;;;;5073903;28;20469;-64
2021/09/15 06:56:19;;;;;;;15.70;14.13;;;19.20;99.90;;;;;;5074299;28;20957;-63
2021/09/15 06:58:46;;;;;;;15.70;14.30;;;19.20;99.90;;;;;;5073630;28;20473;-64
2021/09/15 07:01:14;;;;;;;15.97;14.37;;;19.30;99.90;;;;;;5074204;28;20477;-65
2021/09/15 07:03:41;;;;;;;15.50;14.00;;;19.40;99.90;;;;;;5073743;28;20965;-65
2021/09/15 07:06:08;;;;;;;15.60;14.23;;;19.50;99.90;;;;;;5073964;28;20462;-65
2021/09/15 07:08:35;;;;;;;14.83;13.40;;;19.50;99.90;;;;;;5073968;28;20474;-65
2021/09/15 07:11:02;;;;;;;14.93;13.40;;;19.50;99.90;;;;;;5073644;28;21248;-63
2021/09/15 07:13:29;;;;;;;14.93;13.43;;;19.50;99.90;;;;;;5073771;28;20805;-63
2021/09/15 07:15:58;;;;;;;15.57;14.17;;;19.60;99.90;;;;;;5073494;28;20459;-63
2021/09/15 07:18:27;;;;;;;15.00;13.70;;;19.50;99.90;;;;;;5073757;28;20858;-63
2021/09/15 07:20:54;;;;;;;17.87;13.93;;;19.60;99.90;;;;;;5073077;28;20462;-63
2021/09/15 07:23:21;;;;;;;13.20;12.00;;;19.70;99.90;;;;;;5073992;28;20956;-63
2021/09/15 07:25:48;;;;;;;14.73;13.47;;;19.70;99.90;;;;;;5073152;28;20462;-63
2021/09/15 07:28:14;;;;;;;16.87;13.70;;;19.80;99.90;;;;;;5073485;28;20527;-64
2021/09/15 07:30:41;;;;;;;15.20;13.60;;;19.90;99.90;;;;;;5073298;28;20809;-64
2021/09/15 07:33:08;;;;;;;14.50;13.20;;;19.90;99.90;;;;;;5073311;28;20472;-63
2021/09/15 07:35:37;;;;;;;15.53;14.13;;;19.90;99.90;;;;;;5073294;28;20466;-64
2021/09/15 07:38:04;;;;;;;15.13;12.43;;;20.00;99.90;;;;;;5073110;28;20458;-64
2021/09/15 07:40:31;;;;;;;15.93;14.50;;;20.10;99.90;;;;;;5073285;28;20488;-64
2021/09/15 07:42:59;;;;;;;15.30;13.80;;;20.20;99.90;;;;;;5073011;28;20496;-64
2021/09/15 07:45:26;;;;;;;13.17;11.93;;;20.20;99.90;;;;;;5073413;28;20496;-63
2021/09/15 07:47:53;;;;;;;14.07;12.77;;;20.30;99.90;;;;;;5072884;28;20480;-64
2021/09/15 07:50:20;;;;;;;14.00;12.40;;;20.40;99.90;;;;;;5073084;28;20503;-63
2021/09/15 07:52:48;;;;;;;14.73;13.33;;;20.50;99.90;;;;;;5072699;28;20481;-64
2021/09/15 07:55:15;;;;;;;14.10;11.03;;;20.50;99.90;;;;;;5073220;28;20555;-63
2021/09/15 07:57:43;;;;;;;12.60;11.60;;;20.60;99.90;;;;;;5072345;28;20466;-63
2021/09/15 08:00:10;;;;;;;12.47;11.37;;;20.80;99.90;;;;;;5072439;28;20912;-64
2021/09/15 08:02:37;;;;;;;13.03;12.00;;;20.90;99.90;;;;;;5073068;28;20458;-64
2021/09/15 08:05:05;;;;;;;13.33;12.23;;;21.00;99.90;;;;;;5072494;28;20493;-64
2021/09/15 08:07:32;;;;;;;13.20;12.20;;;21.10;99.90;;;;;;5072839;28;20462;-64
2021/09/15 08:10:00;;;;;;;12.57;11.40;;;21.20;99.90;;;;;;5072308;28;20473;-64
2021/09/15 08:12:27;;;;;;;13.03;11.83;;;21.30;99.90;;;;;;5073030;28;20968;-64
2021/09/15 08:14:54;;;;;;;12.00;11.00;;;21.40;99.90;;;;;;5072351;28;20545;-64
2021/09/15 08:17:20;;;;;;;12.73;11.63;;;21.50;99.90;;;;;;5072865;28;20468;-64
2021/09/15 08:19:47;;;;;;;14.50;13.20;;;21.70;99.90;;;;;;5072359;28;20474;-64
2021/09/15 08:22:14;;;;;;;13.57;12.27;;;21.80;99.90;;;;;;5072676;28;20539;-65
2021/09/15 08:24:41;;;;;;;13.90;12.43;;;21.80;99.90;;;;;;5072774;28;20979;-63
2021/09/15 08:27:09;;;;;;;11.97;10.87;;;21.80;99.90;;;;;;5072206;28;20472;-63
2021/09/15 08:29:37;;;;;;;13.63;12.07;;;21.90;99.90;;;;;;5072590;28;20480;-64
2021/09/15 08:32:04;;;;;;;12.67;11.40;;;21.90;99.90;;;;;;5071896;28;21421;-64
2021/09/15 08:34:31;;;;;;;13.37;12.00;;;21.90;99.90;;;;;;5072547;28;20473;-63
2021/09/15 08:36:57;;;;;;;14.17;11.97;;;21.80;99.90;;;;;;5071938;28;20476;-63
2021/09/15 08:39:24;;;;;;;13.90;12.60;;;21.80;99.90;;;;;;5072452;28;20538;-63
2021/09/15 08:41:52;;;;;;;11.97;10.97;;;21.80;99.90;;;;;;5072242;28;20484;-63
2021/09/15 08:44:21;;;;;;;11.50;10.50;;;21.90;99.90;;;;;;5072595;28;20459;-63
2021/09/15 08:46:51;;;;;;;13.10;11.90;;;22.00;99.90;;;;;;5071964;28;20473;-63
2021/09/15 08:49:19;;;;;;;11.93;10.87;;;22.00;99.90;;;;;;5072435;28;20478;-63
2021/09/15 08:51:46;;;;;;;12.20;11.10;;;22.00;99.90;;;;;;5071787;28;20535;-63
2021/09/15 08:54:14;;;;;;;11.20;10.40;;;22.10;99.90;;;;;;5072403;28;20468;-64
2021/09/15 08:56:41;;;;;;;11.43;10.40;;;22.20;99.90;;;;;;5072393;28;20470;-64
2021/09/15 08:59:08;;;;;;;12.73;11.53;;;22.30;99.90;;;;;;5071938;28;20458;-65
2021/09/15 09:01:38;;;;;;;11.13;10.23;;;22.30;99.90;;;;;;5072207;28;20469;-63
2021/09/15 09:04:05;;;;;;;11.43;10.43;;;22.40;99.90;;;;;;5071873;28;20474;-64
2021/09/15 09:06:33;;;;;;;11.30;10.40;;;22.40;99.90;;;;;;5072252;28;20466;-64
2021/09/15 09:09:03;;;;;;;15.40;12.00;;;22.40;99.90;;;;;;5071840;28;20770;-64
2021/09/15 09:11:33;;;;;;;12.43;11.47;;;22.50;99.90;;;;;;5076355;28;20819;-65
2021/09/15 09:14:02;;;;;;;12.80;11.70;;;22.50;99.90;;;;;;5075799;28;20477;-63
2021/09/15 09:16:41;;;;;;;12.53;11.53;;;22.50;99.90;;;;;;5076039;28;20474;-64
2021/09/15 09:19:10;;;;;;;11.07;10.17;;;22.50;99.90;;;;;;5075798;28;20472;-63
2021/09/15 09:21:39;;;;;;;14.40;11.60;;;22.60;99.90;;;;;;5075871;28;20470;-64
2021/09/15 09:24:07;;;;;;;14.23;11.07;;;22.60;99.90;;;;;;5075469;28;20466;-63
2021/09/15 09:26:49;;;;;;;11.47;10.47;;;22.60;99.90;;;;;;5076055;28;20466;-63
2021/09/15 09:29:18;;;;;;;12.07;11.03;;;22.70;99.90;;;;;;5075873;28;20466;-64
2021/09/15 09:31:56;;;;;;;11.47;10.47;;;22.80;99.90;;;;;;5075679;28;20858;-64
2021/09/15 09:34:24;;;;;;;12.33;11.13;;;22.90;99.90;;;;;;5075515;28;21204;-63
2021/09/15 09:36:57;;;;;;;12.37;11.10;;;22.90;99.90;;;;;;5075741;28;20462;-64
2021/09/15 09:39:35;;;;;;;11.97;10.83;;;22.90;99.90;;;;;;5075381;28;20450;-63
2021/09/15 09:42:03;;;;;;;10.50;9.50;;;23.00;99.90;;;;;;5075376;28;20518;-64
2021/09/15 09:44:30;;;;;;;11.17;10.07;;;23.00;99.90;;;;;;5075773;28;20462;-64
2021/09/15 09:47:19;;;;;;;12.40;11.30;;;23.10;99.90;;;;;;5075654;28;20465;-63
2021/09/15 09:49:59;;;;;;;11.40;10.47;;;23.20;99.90;;;;;;5075539;28;20477;-64
2021/09/15 09:52:26;;;;;;;11.27;10.33;;;23.20;99.90;;;;;;5075482;28;20466;-64
2021/09/15 09:54:59;;;;;;;11.43;10.53;;;23.30;99.90;;;;;;5075014;28;20472;-64
2021/09/15 09:57:28;;;;;;;12.40;11.10;;;23.30;99.90;;;;;;5075493;28;20458;-64
2021/09/15 09:59:56;;;;;;;11.37;10.40;;;23.30;99.90;;;;;;5074998;28;20470;-64
2021/09/15 10:02:24;;;;;;;14.70;10.37;;;23.40;99.90;;;;;;5075394;28;20504;-64
2021/09/15 10:04:51;;;;;;;12.57;11.67;;;23.50;99.90;;;;;;5074871;28;20462;-64
2021/09/15 10:07:18;;;;;;;11.63;10.63;;;23.50;99.90;;;;;;5075244;28;20464;-64
2021/09/15 10:09:45;;;;;;;11.03;10.13;;;23.60;99.90;;;;;;5074656;28;20484;-64
2021/09/15 10:12:13;;;;;;;9.63;8.80;;;23.60;99.90;;;;;;5075201;28;20803;-64
2021/09/15 10:14:40;;;;;;;10.00;9.30;;;23.70;99.90;;;;;;5075259;28;20463;-64
2021/09/15 10:17:11;;;;;;;10.17;9.40;;;23.80;99.90;;;;;;5074714;28;20450;-64
2021/09/15 10:19:42;;;;;;;10.30;9.30;;;23.80;99.90;;;;;;5075018;28;20818;-64
2021/09/15 10:22:09;;;;;;;11.47;9.80;;;23.80;99.90;;;;;;5073967;28;20454;-64
2021/09/15 10:24:51;;;;;;;11.80;10.13;;;23.80;99.90;;;;;;5075116;28;20534;-64
2021/09/15 10:27:19;;;;;;;10.17;9.37;;;23.90;99.90;;;;;;5074685;28;20458;-64
2021/09/15 10:30:03;;;;;;;10.50;9.70;;;24.00;99.90;;;;;;5074819;28;20466;-64
2021/09/15 10:32:32;;;;;;;12.27;11.17;;;24.00;99.90;;;;;;5074996;28;20921;-64
2021/09/15 10:35:01;;;;;;;12.90;10.23;;;24.10;99.90;;;;;;5074709;28;20920;-64
2021/09/15 10:37:53;;;;;;;10.43;9.33;;;24.20;99.90;;;;;;5074574;28;20477;-64
2021/09/15 10:40:37;;;;;;;9.83;9.03;;;24.20;99.90;;;;;;5074630;28;20470;-65
2021/09/15 10:43:25;;;;;;;10.13;8.87;;;24.30;99.90;;;;;;5074462;28;20533;-63
2021/09/15 10:46:17;;;;;;;9.63;8.40;;;24.30;99.90;;;;;;5074756;28;20472;-64
2021/09/15 10:48:45;;;;;;;11.20;10.30;;;24.40;99.90;;;;;;5074508;28;20467;-63
2021/09/15 10:51:20;;;;;;;9.67;8.87;;;24.40;99.90;;;;;;5074364;28;20462;-64
2021/09/15 10:53:47;;;;;;;10.93;10.10;;;24.50;99.90;;;;;;5073838;28;20470;-64
2021/09/15 10:56:35;;;;;;;9.00;8.20;;;24.50;99.90;;;;;;5074423;28;20481;-64
2021/09/15 10:59:02;;;;;;;10.57;8.97;;;24.50;99.90;;;;;;5073833;28;20454;-64
2021/09/15 11:01:38;;;;;;;9.70;8.87;;;24.50;99.90;;;;;;5073965;28;20808;-63
2021/09/15 11:04:05;;;;;;;10.27;9.40;;;24.40;99.90;;;;;;5073858;28;21199;-64
2021/09/15 11:06:37;;;;;;;9.93;9.00;;;24.40;99.90;;;;;;5074117;28;20462;-63
2021/09/15 11:09:04;;;;;;;10.00;9.03;;;24.40;99.90;;;;;;5073541;28;20482;-63
2021/09/15 11:11:50;;;;;;;9.60;8.70;;;24.50;99.90;;;;;;5074042;28;20533;-63
2021/09/15 11:14:18;;;;;;;9.17;8.37;;;24.50;99.90;;;;;;5074211;28;20462;-64
2021/09/15 11:16:45;;;;;;;9.83;9.13;;;24.60;99.90;;;;;;5073576;28;20800;-63
2021/09/15 11:19:15;;;;;;;9.40;8.60;;;24.60;99.90;;;;;;5073754;28;20960;-63
2021/09/15 11:21:47;;;;;;;8.77;7.90;;;24.60;99.90;;;;;;5073167;28;20473;-64
2021/09/15 11:24:20;;;;;;;8.57;7.53;;;24.60;99.90;;;;;;5073580;28;20505;-64
2021/09/15 11:26:50;;;;;;;8.40;7.70;;;24.60;99.90;;;;;;5073383;28;20490;-63
2021/09/15 11:29:37;;;;;;;8.60;7.80;;;24.60;99.90;;;;;;5073528;28;20968;-63
2021/09/15 11:32:04;;;;;;;8.63;8.03;;;24.70;99.90;;;;;;5073339;28;20549;-64
2021/09/15 11:34:32;;;;;;;8.83;8.13;;;24.70;99.90;;;;;;5072524;28;20465;-64
2021/09/15 11:37:00;;;;;;;9.17;8.40;;;24.70;99.90;;;;;;5073367;28;20859;-64
2021/09/15 11:39:27;;;;;;;9.40;8.70;;;24.70;99.90;;;;;;5072923;28;20936;-64
2021/09/15 11:42:01;;;;;;;9.40;8.70;;;24.70;99.90;;;;;;5073045;28;20476;-64
2021/09/15 11:44:28;;;;;;;10.23;9.50;;;24.60;99.90;;;;;;5072991;28;20473;-65
2021/09/15 11:47:01;;;;;;;8.50;7.80;;;24.70;99.90;;;;;;5073267;28;20465;-64
2021/09/15 11:49:35;;;;;;;8.03;7.43;;;24.70;99.90;;;;;;5072729;28;20462;-64
2021/09/15 11:52:04;;;;;;;9.63;8.63;;;24.70;99.90;;;;;;5073072;28;20472;-64
2021/09/15 11:54:31;;;;;;;10.77;9.87;;;24.70;99.90;;;;;;5072881;28;20549;-64
2021/09/15 11:57:09;;;;;;;12.63;11.53;;;24.80;99.90;;;;;;5073015;28;20549;-65
2021/09/15 11:59:36;;;;;;;10.00;9.10;;;24.70;99.90;;;;;;5072703;28;20469;-64
2021/09/15 12:02:05;;;;;;;10.07;9.17;;;24.70;99.90;;;;;;5073058;28;20481;-64
2021/09/15 12:04:34;;;;;;;10.07;9.27;;;24.80;99.90;;;;;;5072431;28;20463;-64
2021/09/15 12:07:03;;;;;;;9.50;8.77;;;24.70;99.90;;;;;;5072690;28;20472;-65
2021/09/15 12:09:34;;;;;;;10.63;9.83;;;24.80;99.90;;;;;;5072604;28;20477;-65
2021/09/15 12:12:07;;;;;;;11.37;10.37;;;24.80;99.90;;;;;;5072987;28;20467;-63
2021/09/15 12:14:33;;;;;;;12.83;10.77;;;24.80;99.90;;;;;;5072444;28;20811;-64
2021/09/15 12:17:04;;;;;;;9.33;8.27;;;24.80;99.90;;;;;;5072847;28;20470;-63
2021/09/15 12:19:30;;;;;;;9.97;9.07;;;24.80;99.90;;;;;;5072448;28;20474;-65
2021/09/15 12:21:57;;;;;;;10.17;9.27;;;24.80;99.90;;;;;;5072774;28;20462;-64
2021/09/15 12:24:26;;;;;;;11.03;9.03;;;24.80;99.90;;;;;;5072286;28;20472;-65
2021/09/15 12:26:54;;;;;;;10.40;9.50;;;24.80;99.90;;;;;;5072940;28;20470;-64
2021/09/15 12:29:22;;;;;;;17.53;16.13;;;24.90;99.90;;;;;;5072166;28;20470;-64
2021/09/15 12:31:50;;;;;;;12.97;11.87;;;24.90;99.90;;;;;;5072553;28;20466;-65
2021/09/15 12:34:29;;;;;;;12.37;11.23;;;25.00;99.90;;;;;;5072278;28;20965;-65
2021/09/15 12:37:10;;;;;;;10.70;9.60;;;25.00;99.90;;;;;;5072523;28;20550;-65
2021/09/15 12:39:48;;;;;;;8.83;8.10;;;25.00;99.90;;;;;;5071971;28;20859;-64
2021/09/15 12:42:17;;;;;;;9.40;8.50;;;25.10;99.90;;;;;;5072091;28;20476;-65